JVL weather

Southern Wisconsin Regional Airport
Janesville, Wisconsin, United States

Public forecast

Using degrees Fahrenheit for public forecast. Weather courtesy of forecast.io.

Current aviation weather report (METAR) for Southern Wisconsin Regional Airport

Retrieved 2020/05/29 08:55 UTC (41 minutes ago):

KJVL 290855Z AUTO 00000KT 10SM CLR 15/15 A2990 RMK AO2

Closest aviation forecast (TAF) to Southern Wisconsin Regional Airport

Closest forecast is Chicago Rockford International Airport, 25.6 nm (47.5 km) S. Retrieved 2020/05/29 06:24 UTC (3 hours ago):

TAF KRFD 290520Z 2906/3006 VRB05KT P6SM BKN100 FM291000 32004KT P6SM SKC FM291600 32012G20KT P6SM BKN050 FM300100 32007KT P6SM SCT050